sensor_id;sensor_type;location;lat;lon;timestamp;temperature;humidity
11083;DHT22;5595;50.186;8.468;2023-05-07T00:00:57;15.90;99.90
11083;DHT22;5595;50.186;8.468;2023-05-07T00:03:25;15.90;99.90
11083;DHT22;5595;50.186;8.468;2023-05-07T00:05:52;16.00;99.90
11083;DHT22;5595;50.186;8.468;2023-05-07T00:08:18;16.00;99.90
11083;DHT22;5595;50.186;8.468;2023-05-07T00:10:45;16.00;99.90
11083;DHT22;5595;50.186;8.468;2023-05-07T00:13:13;16.00;99.90
11083;DHT22;5595;50.186;8.468;2023-05-07T00:15:40;16.10;99.90
11083;DHT22;5595;50.186;8.468;2023-05-07T00:18:08;16.20;99.90
11083;DHT22;5595;50.186;8.468;2023-05-07T00:20:35;16.10;99.90
11083;DHT22;5595;50.186;8.468;2023-05-07T00:23:02;16.20;99.90
11083;DHT22;5595;50.186;8.468;2023-05-07T00:25:39;16.10;99.90
11083;DHT22;5595;50.186;8.468;2023-05-07T00:28:06;16.20;99.90
11083;DHT22;5595;50.186;8.468;2023-05-07T00:30:33;16.20;99.90
11083;DHT22;5595;50.186;8.468;2023-05-07T00:32:59;16.20;99.90
11083;DHT22;5595;50.186;8.468;2023-05-07T00:35:28;16.20;99.90
11083;DHT22;5595;50.186;8.468;2023-05-07T00:37:55;16.20;99.90
11083;DHT22;5595;50.186;8.468;2023-05-07T00:40:22;16.20;99.90
11083;DHT22;5595;50.186;8.468;2023-05-07T00:42:49;16.30;99.90
11083;DHT22;5595;50.186;8.468;2023-05-07T00:45:16;16.30;99.90
11083;DHT22;5595;50.186;8.468;2023-05-07T00:47:43;16.30;99.90
11083;DHT22;5595;50.186;8.468;2023-05-07T00:50:10;16.30;99.90
11083;DHT22;5595;50.186;8.468;2023-05-07T00:52:39;16.30;99.90
11083;DHT22;5595;50.186;8.468;2023-05-07T00:55:07;16.20;99.90
11083;DHT22;5595;50.186;8.468;2023-05-07T00:57:36;16.20;99.90
11083;DHT22;5595;50.186;8.468;2023-05-07T01:00:06;16.20;99.90
11083;DHT22;5595;50.186;8.468;2023-05-07T01:02:33;16.20;99.90
11083;DHT22;5595;50.186;8.468;2023-05-07T01:05:00;16.20;99.90
11083;DHT22;5595;50.186;8.468;2023-05-07T01:07:27;16.20;99.90
11083;DHT22;5595;50.186;8.468;2023-05-07T01:09:56;16.20;99.90
11083;DHT22;5595;50.186;8.468;2023-05-07T01:12:24;16.20;99.90
11083;DHT22;5595;50.186;8.468;2023-05-07T01:14:53;16.30;99.90
11083;DHT22;5595;50.186;8.468;2023-05-07T01:17:20;16.20;99.90
11083;DHT22;5595;50.186;8.468;2023-05-07T01:19:47;16.30;99.90
11083;DHT22;5595;50.186;8.468;2023-05-07T01:22:24;16.20;99.90
11083;DHT22;5595;50.186;8.468;2023-05-07T01:24:53;16.20;99.90
11083;DHT22;5595;50.186;8.468;2023-05-07T01:27:21;16.20;99.90
11083;DHT22;5595;50.186;8.468;2023-05-07T01:29:48;16.20;99.90
11083;DHT22;5595;50.186;8.468;2023-05-07T01:32:17;16.20;99.90
11083;DHT22;5595;50.186;8.468;2023-05-07T01:34:46;16.20;99.90
11083;DHT22;5595;50.186;8.468;2023-05-07T01:37:14;16.10;99.90
11083;DHT22;5595;50.186;8.468;2023-05-07T01:39:43;16.10;99.90
11083;DHT22;5595;50.186;8.468;2023-05-07T01:42:10;16.00;99.90
11083;DHT22;5595;50.186;8.468;2023-05-07T01:44:38;15.90;99.90
11083;DHT22;5595;50.186;8.468;2023-05-07T01:47:06;16.00;99.90
11083;DHT22;5595;50.186;8.468;2023-05-07T01:49:33;15.90;99.90
11083;DHT22;5595;50.186;8.468;2023-05-07T01:52:01;15.80;99.90
11083;DHT22;5595;50.186;8.468;2023-05-07T01:54:28;15.80;99.90
11083;DHT22;5595;50.186;8.468;2023-05-07T01:56:56;15.80;99.90
11083;DHT22;5595;50.186;8.468;2023-05-07T01:59:23;15.70;99.90
11083;DHT22;5595;50.186;8.468;2023-05-07T02:01:50;15.70;99.90
11083;DHT22;5595;50.186;8.468;2023-05-07T02:04:20;15.70;99.90
11083;DHT22;5595;50.186;8.468;2023-05-07T02:06:47;15.70;99.90
11083;DHT22;5595;50.186;8.468;2023-05-07T02:09:14;15.70;99.90
11083;DHT22;5595;50.186;8.468;2023-05-07T02:11:41;15.60;99.90
11083;DHT22;5595;50.186;8.468;2023-05-07T02:14:09;15.50;99.90
11083;DHT22;5595;50.186;8.468;2023-05-07T02:16:36;15.50;99.90
11083;DHT22;5595;50.186;8.468;2023-05-07T02:19:03;15.40;99.90
11083;DHT22;5595;50.186;8.468;2023-05-07T02:21:30;15.40;99.90
11083;DHT22;5595;50.186;8.468;2023-05-07T02:23:57;15.40;99.90
11083;DHT22;5595;50.186;8.468;2023-05-07T02:26:24;15.40;99.90
11083;DHT22;5595;50.186;8.468;2023-05-07T02:28:52;15.40;99.90
11083;DHT22;5595;50.186;8.468;2023-05-07T02:31:20;15.30;99.90
11083;DHT22;5595;50.186;8.468;2023-05-07T02:33:47;15.30;99.90
11083;DHT22;5595;50.186;8.468;2023-05-07T02:36:14;15.30;99.90
11083;DHT22;5595;50.186;8.468;2023-05-07T02:38:41;15.20;99.90
11083;DHT22;5595;50.186;8.468;2023-05-07T02:41:07;15.20;99.90
11083;DHT22;5595;50.186;8.468;2023-05-07T02:43:34;15.20;99.90
11083;DHT22;5595;50.186;8.468;2023-05-07T02:46:02;15.20;99.90
11083;DHT22;5595;50.186;8.468;2023-05-07T02:48:30;15.20;99.90
11083;DHT22;5595;50.186;8.468;2023-05-07T02:50:57;15.10;99.90
11083;DHT22;5595;50.186;8.468;2023-05-07T02:53:24;15.10;99.90
11083;DHT22;5595;50.186;8.468;2023-05-07T02:55:52;15.20;99.90
11083;DHT22;5595;50.186;8.468;2023-05-07T02:58:19;15.20;99.90
11083;DHT22;5595;50.186;8.468;2023-05-07T03:00:46;15.20;99.90
11083;DHT22;5595;50.186;8.468;2023-05-07T03:03:13;15.00;99.90
11083;DHT22;5595;50.186;8.468;2023-05-07T03:05:41;15.10;99.90
11083;DHT22;5595;50.186;8.468;2023-05-07T03:08:08;15.10;99.90
11083;DHT22;5595;50.186;8.468;2023-05-07T03:10:35;15.30;99.90
11083;DHT22;5595;50.186;8.468;2023-05-07T03:13:02;15.20;99.90
11083;DHT22;5595;50.186;8.468;2023-05-07T03:15:29;15.30;99.90
11083;DHT22;5595;50.186;8.468;2023-05-07T03:17:56;15.30;99.90
11083;DHT22;5595;50.186;8.468;2023-05-07T03:20:23;15.40;99.90
11083;DHT22;5595;50.186;8.468;2023-05-07T03:22:51;15.40;99.90
11083;DHT22;5595;50.186;8.468;2023-05-07T03:25:18;15.40;99.90
11083;DHT22;5595;50.186;8.468;2023-05-07T03:27:45;15.40;99.90
11083;DHT22;5595;50.186;8.468;2023-05-07T03:30:12;15.50;99.90
11083;DHT22;5595;50.186;8.468;2023-05-07T03:32:39;15.50;99.90
11083;DHT22;5595;50.186;8.468;2023-05-07T03:35:06;15.50;99.90
11083;DHT22;5595;50.186;8.468;2023-05-07T03:37:33;15.60;99.90
11083;DHT22;5595;50.186;8.468;2023-05-07T03:40:02;15.60;99.90
11083;DHT22;5595;50.186;8.468;2023-05-07T03:42:29;15.60;99.90
11083;DHT22;5595;50.186;8.468;2023-05-07T03:44:56;15.50;99.90
11083;DHT22;5595;50.186;8.468;2023-05-07T03:47:25;15.50;99.90
11083;DHT22;5595;50.186;8.468;2023-05-07T03:49:52;15.50;99.90
11083;DHT22;5595;50.186;8.468;2023-05-07T03:52:20;15.50;99.90
11083;DHT22;5595;50.186;8.468;2023-05-07T03:54:51;15.50;99.90
11083;DHT22;5595;50.186;8.468;2023-05-07T03:57:19;15.50;99.90
11083;DHT22;5595;50.186;8.468;2023-05-07T03:59:46;15.50;99.90
11083;DHT22;5595;50.186;8.468;2023-05-07T04:02:13;15.60;99.90
11083;DHT22;5595;50.186;8.468;2023-05-07T04:04:39;15.60;99.90
11083;DHT22;5595;50.186;8.468;2023-05-07T04:07:06;15.50;99.90
11083;DHT22;5595;50.186;8.468;2023-05-07T04:09:33;15.50;99.90
11083;DHT22;5595;50.186;8.468;2023-05-07T04:12:00;15.60;99.90
11083;DHT22;5595;50.186;8.468;2023-05-07T04:14:28;15.60;99.90
11083;DHT22;5595;50.186;8.468;2023-05-07T04:16:57;15.60;99.90
11083;DHT22;5595;50.186;8.468;2023-05-07T04:19:24;15.60;99.90
11083;DHT22;5595;50.186;8.468;2023-05-07T04:21:51;15.60;99.90
11083;DHT22;5595;50.186;8.468;2023-05-07T04:24:18;15.60;99.90
11083;DHT22;5595;50.186;8.468;2023-05-07T04:26:44;15.60;99.90
11083;DHT22;5595;50.186;8.468;2023-05-07T04:29:11;15.60;99.90
11083;DHT22;5595;50.186;8.468;2023-05-07T04:31:39;15.60;99.90
11083;DHT22;5595;50.186;8.468;2023-05-07T04:34:06;15.70;99.90
11083;DHT22;5595;50.186;8.468;2023-05-07T04:36:34;15.60;99.90
11083;DHT22;5595;50.186;8.468;2023-05-07T04:39:02;15.60;99.90
11083;DHT22;5595;50.186;8.468;2023-05-07T04:41:29;15.70;99.90
11083;DHT22;5595;50.186;8.468;2023-05-07T04:43:56;15.90;99.90
11083;DHT22;5595;50.186;8.468;2023-05-07T04:46:24;15.70;99.90
11083;DHT22;5595;50.186;8.468;2023-05-07T04:48:52;15.70;99.90
11083;DHT22;5595;50.186;8.468;2023-05-07T04:51:19;15.80;99.90
11083;DHT22;5595;50.186;8.468;2023-05-07T04:53:46;15.70;99.90
11083;DHT22;5595;50.186;8.468;2023-05-07T04:56:13;15.80;99.90
11083;DHT22;5595;50.186;8.468;2023-05-07T04:58:39;15.80;99.90
11083;DHT22;5595;50.186;8.468;2023-05-07T05:01:06;15.90;99.90
11083;DHT22;5595;50.186;8.468;2023-05-07T05:03:33;15.90;99.90
11083;DHT22;5595;50.186;8.468;2023-05-07T05:06:01;16.00;99.90
11083;DHT22;5595;50.186;8.468;2023-05-07T05:08:29;16.00;99.90
11083;DHT22;5595;50.186;8.468;2023-05-07T05:10:56;16.00;99.90
11083;DHT22;5595;50.186;8.468;2023-05-07T05:13:23;16.10;99.90
11083;DHT22;5595;50.186;8.468;2023-05-07T05:15:50;16.10;99.90
11083;DHT22;5595;50.186;8.468;2023-05-07T05:18:17;16.10;99.90
11083;DHT22;5595;50.186;8.468;2023-05-07T05:20:44;16.20;99.90
11083;DHT22;5595;50.186;8.468;2023-05-07T05:23:12;16.20;99.90
11083;DHT22;5595;50.186;8.468;2023-05-07T05:25:39;16.10;99.90
11083;DHT22;5595;50.186;8.468;2023-05-07T05:28:06;16.20;99.90
11083;DHT22;5595;50.186;8.468;2023-05-07T05:30:33;16.20;99.90
11083;DHT22;5595;50.186;8.468;2023-05-07T05:32:59;16.20;99.90
11083;DHT22;5595;50.186;8.468;2023-05-07T05:35:26;16.20;99.90
11083;DHT22;5595;50.186;8.468;2023-05-07T05:37:53;16.30;99.90
11083;DHT22;5595;50.186;8.468;2023-05-07T05:40:21;16.40;99.90
11083;DHT22;5595;50.186;8.468;2023-05-07T05:42:48;16.40;99.90
11083;DHT22;5595;50.186;8.468;2023-05-07T05:45:15;16.50;99.90
11083;DHT22;5595;50.186;8.468;2023-05-07T05:47:43;16.50;99.90
11083;DHT22;5595;50.186;8.468;2023-05-07T05:50:10;16.60;99.90
11083;DHT22;5595;50.186;8.468;2023-05-07T05:52:36;16.80;99.90
11083;DHT22;5595;50.186;8.468;2023-05-07T05:55:04;16.90;99.90
11083;DHT22;5595;50.186;8.468;2023-05-07T05:57:32;17.00;99.90
11083;DHT22;5595;50.186;8.468;2023-05-07T06:00:00;17.10;99.90
11083;DHT22;5595;50.186;8.468;2023-05-07T06:02:28;17.20;99.90
11083;DHT22;5595;50.186;8.468;2023-05-07T06:04:54;17.40;99.90
11083;DHT22;5595;50.186;8.468;2023-05-07T06:07:21;17.30;99.90
11083;DHT22;5595;50.186;8.468;2023-05-07T06:09:48;17.40;99.90
11083;DHT22;5595;50.186;8.468;2023-05-07T06:12:18;17.50;99.90
11083;DHT22;5595;50.186;8.468;2023-05-07T06:14:46;17.50;99.90
11083;DHT22;5595;50.186;8.468;2023-05-07T06:17:14;17.50;99.90
11083;DHT22;5595;50.186;8.468;2023-05-07T06:19:40;17.50;99.90
11083;DHT22;5595;50.186;8.468;2023-05-07T06:22:07;17.60;99.90
11083;DHT22;5595;50.186;8.468;2023-05-07T06:24:34;17.60;99.90
11083;DHT22;5595;50.186;8.468;2023-05-07T06:27:01;17.60;99.90
11083;DHT22;5595;50.186;8.468;2023-05-07T06:29:29;17.60;99.90
11083;DHT22;5595;50.186;8.468;2023-05-07T06:32:06;17.70;99.90
11083;DHT22;5595;50.186;8.468;2023-05-07T06:34:33;17.80;99.90
11083;DHT22;5595;50.186;8.468;2023-05-07T06:37:00;17.80;99.90
11083;DHT22;5595;50.186;8.468;2023-05-07T06:39:27;17.80;99.90
11083;DHT22;5595;50.186;8.468;2023-05-07T06:41:53;17.80;99.90
11083;DHT22;5595;50.186;8.468;2023-05-07T06:44:20;18.00;99.90
11083;DHT22;5595;50.186;8.468;2023-05-07T06:46:47;18.00;99.90
11083;DHT22;5595;50.186;8.468;2023-05-07T06:49:15;18.20;99.90
11083;DHT22;5595;50.186;8.468;2023-05-07T06:51:42;18.40;99.90
11083;DHT22;5595;50.186;8.468;2023-05-07T06:54:09;18.60;99.90
11083;DHT22;5595;50.186;8.468;2023-05-07T06:56:36;18.70;99.90
11083;DHT22;5595;50.186;8.468;2023-05-07T06:59:03;18.90;99.90
11083;DHT22;5595;50.186;8.468;2023-05-07T07:01:30;18.90;99.90
11083;DHT22;5595;50.186;8.468;2023-05-07T07:03:57;19.00;99.90
11083;DHT22;5595;50.186;8.468;2023-05-07T07:06:25;19.30;99.90
11083;DHT22;5595;50.186;8.468;2023-05-07T07:08:52;19.20;99.90
11083;DHT22;5595;50.186;8.468;2023-05-07T07:11:19;19.30;99.90
11083;DHT22;5595;50.186;8.468;2023-05-07T07:13:46;19.30;99.90
11083;DHT22;5595;50.186;8.468;2023-05-07T07:16:13;19.60;99.90
11083;DHT22;5595;50.186;8.468;2023-05-07T07:18:40;19.60;99.90
11083;DHT22;5595;50.186;8.468;2023-05-07T07:21:07;19.90;99.90
11083;DHT22;5595;50.186;8.468;2023-05-07T07:23:35;19.90;99.90
11083;DHT22;5595;50.186;8.468;2023-05-07T07:26:02;20.00;99.90
11083;DHT22;5595;50.186;8.468;2023-05-07T07:28:28;20.10;99.90
11083;DHT22;5595;50.186;8.468;2023-05-07T07:30:55;20.00;99.90
11083;DHT22;5595;50.186;8.468;2023-05-07T07:33:22;20.20;99.90
11083;DHT22;5595;50.186;8.468;2023-05-07T07:35:49;20.00;99.90
11083;DHT22;5595;50.186;8.468;2023-05-07T07:38:16;20.00;99.90
11083;DHT22;5595;50.186;8.468;2023-05-07T07:40:45;20.20;99.90
11083;DHT22;5595;50.186;8.468;2023-05-07T07:43:11;20.30;99.90
11083;DHT22;5595;50.186;8.468;2023-05-07T07:45:38;20.40;99.90
11083;DHT22;5595;50.186;8.468;2023-05-07T07:48:06;20.50;99.90
11083;DHT22;5595;50.186;8.468;2023-05-07T07:50:33;20.60;99.90
11083;DHT22;5595;50.186;8.468;2023-05-07T07:52:59;20.80;99.90
11083;DHT22;5595;50.186;8.468;2023-05-07T07:55:26;20.90;99.90
11083;DHT22;5595;50.186;8.468;2023-05-07T07:57:55;21.00;99.90
11083;DHT22;5595;50.186;8.468;2023-05-07T08:00:22;21.00;99.90
11083;DHT22;5595;50.186;8.468;2023-05-07T08:02:49;21.00;99.90
11083;DHT22;5595;50.186;8.468;2023-05-07T08:05:15;20.90;99.90
11083;DHT22;5595;50.186;8.468;2023-05-07T08:07:43;20.80;99.90
11083;DHT22;5595;50.186;8.468;2023-05-07T08:10:10;20.80;99.90
11083;DHT22;5595;50.186;8.468;2023-05-07T08:12:37;20.80;99.90
11083;DHT22;5595;50.186;8.468;2023-05-07T08:15:06;20.90;99.90
11083;DHT22;5595;50.186;8.468;2023-05-07T08:17:33;20.90;99.90
11083;DHT22;5595;50.186;8.468;2023-05-07T08:20:00;21.10;99.90
11083;DHT22;5595;50.186;8.468;2023-05-07T08:22:27;21.20;99.90
11083;DHT22;5595;50.186;8.468;2023-05-07T08:24:53;21.20;99.90
11083;DHT22;5595;50.186;8.468;2023-05-07T08:27:20;21.20;99.90
11083;DHT22;5595;50.186;8.468;2023-05-07T08:29:47;21.30;99.90
11083;DHT22;5595;50.186;8.468;2023-05-07T08:32:15;21.30;99.90
11083;DHT22;5595;50.186;8.468;2023-05-07T08:34:42;21.40;99.90
11083;DHT22;5595;50.186;8.468;2023-05-07T08:37:09;21.50;99.90
11083;DHT22;5595;50.186;8.468;2023-05-07T08:39:36;21.60;99.90
11083;DHT22;5595;50.186;8.468;2023-05-07T08:42:04;21.70;99.90
11083;DHT22;5595;50.186;8.468;2023-05-07T08:44:33;22.00;99.90
11083;DHT22;5595;50.186;8.468;2023-05-07T08:47:01;22.10;99.90
11083;DHT22;5595;50.186;8.468;2023-05-07T08:49:30;22.00;99.90
11083;DHT22;5595;50.186;8.468;2023-05-07T08:51:57;22.10;99.90
11083;DHT22;5595;50.186;8.468;2023-05-07T08:54:25;22.10;99.90
11083;DHT22;5595;50.186;8.468;2023-05-07T08:56:52;22.10;99.90
11083;DHT22;5595;50.186;8.468;2023-05-07T08:59:19;22.10;99.90
11083;DHT22;5595;50.186;8.468;2023-05-07T09:01:46;22.00;99.90
11083;DHT22;5595;50.186;8.468;2023-05-07T09:04:13;22.00;99.90
11083;DHT22;5595;50.186;8.468;2023-05-07T09:06:41;22.00;99.90
11083;DHT22;5595;50.186;8.468;2023-05-07T09:09:08;22.10;99.90
11083;DHT22;5595;50.186;8.468;2023-05-07T09:11:35;22.00;99.90
11083;DHT22;5595;50.186;8.468;2023-05-07T09:14:02;21.90;99.90
11083;DHT22;5595;50.186;8.468;2023-05-07T09:16:30;21.80;99.90
11083;DHT22;5595;50.186;8.468;2023-05-07T09:18:58;21.90;99.90
11083;DHT22;5595;50.186;8.468;2023-05-07T09:21:25;21.80;99.90
11083;DHT22;5595;50.186;8.468;2023-05-07T09:23:55;21.80;99.90
11083;DHT22;5595;50.186;8.468;2023-05-07T09:26:22;22.00;99.90
11083;DHT22;5595;50.186;8.468;2023-05-07T09:28:49;22.10;99.90
11083;DHT22;5595;50.186;8.468;2023-05-07T09:31:16;22.00;99.90
11083;DHT22;5595;50.186;8.468;2023-05-07T09:33:43;22.00;99.90
11083;DHT22;5595;50.186;8.468;2023-05-07T09:36:10;22.20;99.90
11083;DHT22;5595;50.186;8.468;2023-05-07T09:38:38;22.30;99.90
11083;DHT22;5595;50.186;8.468;2023-05-07T09:41:07;22.30;99.90
11083;DHT22;5595;50.186;8.468;2023-05-07T09:43:35;22.30;99.90
11083;DHT22;5595;50.186;8.468;2023-05-07T09:46:03;22.30;99.90
11083;DHT22;5595;50.186;8.468;2023-05-07T09:48:35;22.20;99.90
11083;DHT22;5595;50.186;8.468;2023-05-07T09:51:09;22.20;99.90
11083;DHT22;5595;50.186;8.468;2023-05-07T09:53:37;22.00;99.90
11083;DHT22;5595;50.186;8.468;2023-05-07T09:56:07;22.50;99.90
11083;DHT22;5595;50.186;8.468;2023-05-07T09:58:37;22.70;99.90
11083;DHT22;5595;50.186;8.468;2023-05-07T10:01:05;22.80;99.90
11083;DHT22;5595;50.186;8.468;2023-05-07T10:03:33;22.90;99.90
11083;DHT22;5595;50.186;8.468;2023-05-07T10:06:02;23.00;99.90
11083;DHT22;5595;50.186;8.468;2023-05-07T10:08:30;23.00;99.90
11083;DHT22;5595;50.186;8.468;2023-05-07T10:10:57;23.10;99.90
11083;DHT22;5595;50.186;8.468;2023-05-07T10:13:26;23.20;99.90
11083;DHT22;5595;50.186;8.468;2023-05-07T10:15:53;23.50;99.90
11083;DHT22;5595;50.186;8.468;2023-05-07T10:18:22;23.40;99.60
11083;DHT22;5595;50.186;8.468;2023-05-07T10:20:56;23.50;99.70
11083;DHT22;5595;50.186;8.468;2023-05-07T10:23:26;23.60;99.90
11083;DHT22;5595;50.186;8.468;2023-05-07T10:25:54;23.70;99.70
11083;DHT22;5595;50.186;8.468;2023-05-07T10:28:24;23.70;99.80
11083;DHT22;5595;50.186;8.468;2023-05-07T10:31:02;23.90;99.30
11083;DHT22;5595;50.186;8.468;2023-05-07T10:33:31;23.80;99.20
11083;DHT22;5595;50.186;8.468;2023-05-07T10:35:59;23.90;98.90
11083;DHT22;5595;50.186;8.468;2023-05-07T10:38:27;23.90;98.70
11083;DHT22;5595;50.186;8.468;2023-05-07T10:40:54;23.90;98.40
11083;DHT22;5595;50.186;8.468;2023-05-07T10:43:21;23.80;98.70
11083;DHT22;5595;50.186;8.468;2023-05-07T10:46:14;23.80;98.80
11083;DHT22;5595;50.186;8.468;2023-05-07T10:49:06;24.00;98.60
11083;DHT22;5595;50.186;8.468;2023-05-07T10:51:33;23.90;98.50
11083;DHT22;5595;50.186;8.468;2023-05-07T10:54:23;23.80;98.20
11083;DHT22;5595;50.186;8.468;2023-05-07T10:56:52;23.70;97.90
11083;DHT22;5595;50.186;8.468;2023-05-07T10:59:36;23.90;98.00
11083;DHT22;5595;50.186;8.468;2023-05-07T11:02:10;24.20;98.20
11083;DHT22;5595;50.186;8.468;2023-05-07T11:04:39;24.40;97.70
11083;DHT22;5595;50.186;8.468;2023-05-07T11:07:30;24.50;97.80
11083;DHT22;5595;50.186;8.468;2023-05-07T11:10:04;24.50;97.40
11083;DHT22;5595;50.186;8.468;2023-05-07T11:12:53;24.40;97.10
11083;DHT22;5595;50.186;8.468;2023-05-07T11:15:41;24.40;97.20
11083;DHT22;5595;50.186;8.468;2023-05-07T11:18:11;24.50;97.00
11083;DHT22;5595;50.186;8.468;2023-05-07T11:20:52;24.50;96.30
11083;DHT22;5595;50.186;8.468;2023-05-07T11:23:57;24.50;96.30
11083;DHT22;5595;50.186;8.468;2023-05-07T11:26:26;24.70;96.40
11083;DHT22;5595;50.186;8.468;2023-05-07T11:28:54;24.80;96.20
11083;DHT22;5595;50.186;8.468;2023-05-07T11:31:26;24.90;96.10
11083;DHT22;5595;50.186;8.468;2023-05-07T11:33:55;25.00;95.70
11083;DHT22;5595;50.186;8.468;2023-05-07T11:36:23;25.00;95.40
11083;DHT22;5595;50.186;8.468;2023-05-07T11:38:50;24.90;95.00
11083;DHT22;5595;50.186;8.468;2023-05-07T11:41:17;24.90;94.80
11083;DHT22;5595;50.186;8.468;2023-05-07T11:43:58;24.80;94.90
11083;DHT22;5595;50.186;8.468;2023-05-07T11:46:25;24.90;95.20
11083;DHT22;5595;50.186;8.468;2023-05-07T11:48:53;24.90;95.10
11083;DHT22;5595;50.186;8.468;2023-05-07T11:51:22;25.10;95.30
11083;DHT22;5595;50.186;8.468;2023-05-07T11:53:50;25.10;94.80
11083;DHT22;5595;50.186;8.468;2023-05-07T11:56:18;25.10;94.10
11083;DHT22;5595;50.186;8.468;2023-05-07T11:58:46;25.10;93.50
11083;DHT22;5595;50.186;8.468;2023-05-07T12:01:14;25.00;93.40
11083;DHT22;5595;50.186;8.468;2023-05-07T12:03:43;24.80;93.00
11083;DHT22;5595;50.186;8.468;2023-05-07T12:06:11;24.60;92.20
11083;DHT22;5595;50.186;8.468;2023-05-07T12:08:41;24.40;92.80
11083;DHT22;5595;50.186;8.468;2023-05-07T12:11:09;24.50;92.90
11083;DHT22;5595;50.186;8.468;2023-05-07T12:13:37;24.60;92.90
11083;DHT22;5595;50.186;8.468;2023-05-07T12:16:06;24.60;92.80
11083;DHT22;5595;50.186;8.468;2023-05-07T12:18:35;24.80;93.20
11083;DHT22;5595;50.186;8.468;2023-05-07T12:21:04;24.90;92.80
11083;DHT22;5595;50.186;8.468;2023-05-07T12:23:32;24.90;92.60
11083;DHT22;5595;50.186;8.468;2023-05-07T12:26:01;25.00;92.80
11083;DHT22;5595;50.186;8.468;2023-05-07T12:28:28;25.10;92.30
11083;DHT22;5595;50.186;8.468;2023-05-07T12:30:56;25.10;92.30
11083;DHT22;5595;50.186;8.468;2023-05-07T12:33:25;25.30;92.50
11083;DHT22;5595;50.186;8.468;2023-05-07T12:35:54;25.50;92.60
11083;DHT22;5595;50.186;8.468;2023-05-07T12:38:22;25.50;91.70
11083;DHT22;5595;50.186;8.468;2023-05-07T12:40:50;25.60;91.70
11083;DHT22;5595;50.186;8.468;2023-05-07T12:43:19;25.80;91.30
11083;DHT22;5595;50.186;8.468;2023-05-07T12:45:48;26.00;90.60
11083;DHT22;5595;50.186;8.468;2023-05-07T12:48:15;25.70;87.10
11083;DHT22;5595;50.186;8.468;2023-05-07T12:50:42;25.70;87.40
11083;DHT22;5595;50.186;8.468;2023-05-07T12:53:12;25.60;88.00
11083;DHT22;5595;50.186;8.468;2023-05-07T12:55:42;25.70;88.10
11083;DHT22;5595;50.186;8.468;2023-05-07T12:58:15;25.50;87.30
11083;DHT22;5595;50.186;8.468;2023-05-07T13:00:45;25.50;88.20
11083;DHT22;5595;50.186;8.468;2023-05-07T13:03:21;25.40;87.80
11083;DHT22;5595;50.186;8.468;2023-05-07T13:05:47;25.30;88.30
11083;DHT22;5595;50.186;8.468;2023-05-07T13:08:26;25.10;88.10
11083;DHT22;5595;50.186;8.468;2023-05-07T13:10:54;24.70;88.60
11083;DHT22;5595;50.186;8.468;2023-05-07T13:13:21;24.50;89.40
11083;DHT22;5595;50.186;8.468;2023-05-07T13:15:49;24.40;89.70
11083;DHT22;5595;50.186;8.468;2023-05-07T13:18:16;24.40;90.10
11083;DHT22;5595;50.186;8.468;2023-05-07T13:20:43;24.50;90.00
11083;DHT22;5595;50.186;8.468;2023-05-07T13:23:10;24.50;90.30
11083;DHT22;5595;50.186;8.468;2023-05-07T13:25:52;24.70;90.50
11083;DHT22;5595;50.186;8.468;2023-05-07T13:28:48;24.90;90.80
11083;DHT22;5595;50.186;8.468;2023-05-07T13:31:18;25.10;90.60
11083;DHT22;5595;50.186;8.468;2023-05-07T13:33:46;25.10;90.70
11083;DHT22;5595;50.186;8.468;2023-05-07T13:36:13;25.10;90.80
11083;DHT22;5595;50.186;8.468;2023-05-07T13:38:40;25.00;90.80
11083;DHT22;5595;50.186;8.468;2023-05-07T13:41:07;24.80;90.80
11083;DHT22;5595;50.186;8.468;2023-05-07T13:43:33;24.60;90.90
11083;DHT22;5595;50.186;8.468;2023-05-07T13:46:00;24.50;90.90
11083;DHT22;5595;50.186;8.468;2023-05-07T13:48:29;24.70;91.20
11083;DHT22;5595;50.186;8.468;2023-05-07T13:50:55;24.70;91.10
11083;DHT22;5595;50.186;8.468;2023-05-07T13:53:22;24.90;91.00
11083;DHT22;5595;50.186;8.468;2023-05-07T13:55:49;25.20;91.50
11083;DHT22;5595;50.186;8.468;2023-05-07T13:58:16;25.00;90.70
11083;DHT22;5595;50.186;8.468;2023-05-07T14:00:43;25.00;90.80
11083;DHT22;5595;50.186;8.468;2023-05-07T14:03:10;25.00;90.60
11083;DHT22;5595;50.186;8.468;2023-05-07T14:05:38;25.10;90.40
11083;DHT22;5595;50.186;8.468;2023-05-07T14:08:06;25.20;90.50
11083;DHT22;5595;50.186;8.468;2023-05-07T14:10:33;25.40;90.50
11083;DHT22;5595;50.186;8.468;2023-05-07T14:13:03;25.50;89.40
11083;DHT22;5595;50.186;8.468;2023-05-07T14:15:30;25.50;89.50
11083;DHT22;5595;50.186;8.468;2023-05-07T14:17:57;25.50;89.80
11083;DHT22;5595;50.186;8.468;2023-05-07T14:20:25;25.40;89.50
11083;DHT22;5595;50.186;8.468;2023-05-07T14:22:53;25.50;90.00
11083;DHT22;5595;50.186;8.468;2023-05-07T14:25:20;25.60;89.20
11083;DHT22;5595;50.186;8.468;2023-05-07T14:27:47;25.60;89.60
11083;DHT22;5595;50.186;8.468;2023-05-07T14:30:14;25.60;88.90
11083;DHT22;5595;50.186;8.468;2023-05-07T14:32:42;25.70;89.10
11083;DHT22;5595;50.186;8.468;2023-05-07T14:35:09;25.80;88.60
11083;DHT22;5595;50.186;8.468;2023-05-07T14:37:36;25.80;88.10
11083;DHT22;5595;50.186;8.468;2023-05-07T14:40:05;25.60;87.20
11083;DHT22;5595;50.186;8.468;2023-05-07T14:42:33;25.50;87.80
11083;DHT22;5595;50.186;8.468;2023-05-07T14:44:59;25.50;88.50
11083;DHT22;5595;50.186;8.468;2023-05-07T14:47:26;25.50;87.50
11083;DHT22;5595;50.186;8.468;2023-05-07T14:49:54;25.30;87.40
11083;DHT22;5595;50.186;8.468;2023-05-07T14:52:22;25.10;87.40
11083;DHT22;5595;50.186;8.468;2023-05-07T14:54:49;24.80;87.30
11083;DHT22;5595;50.186;8.468;2023-05-07T14:57:17;24.50;87.80
11083;DHT22;5595;50.186;8.468;2023-05-07T14:59:45;24.60;88.70
11083;DHT22;5595;50.186;8.468;2023-05-07T15:02:13;24.60;89.40
11083;DHT22;5595;50.186;8.468;2023-05-07T15:04:40;24.80;89.70
11083;DHT22;5595;50.186;8.468;2023-05-07T15:07:11;24.90;89.00
11083;DHT22;5595;50.186;8.468;2023-05-07T15:09:40;25.10;87.60
11083;DHT22;5595;50.186;8.468;2023-05-07T15:12:07;25.10;88.10
11083;DHT22;5595;50.186;8.468;2023-05-07T15:14:35;25.00;87.20
11083;DHT22;5595;50.186;8.468;2023-05-07T15:17:02;25.00;87.70
11083;DHT22;5595;50.186;8.468;2023-05-07T15:19:29;24.90;87.80
11083;DHT22;5595;50.186;8.468;2023-05-07T15:21:56;24.90;87.20
11083;DHT22;5595;50.186;8.468;2023-05-07T15:24:23;24.80;87.50
11083;DHT22;5595;50.186;8.468;2023-05-07T15:26:51;24.90;87.70
11083;DHT22;5595;50.186;8.468;2023-05-07T15:29:18;25.00;86.70
11083;DHT22;5595;50.186;8.468;2023-05-07T15:31:47;25.00;86.80
11083;DHT22;5595;50.186;8.468;2023-05-07T15:34:14;25.00;86.60
11083;DHT22;5595;50.186;8.468;2023-05-07T15:36:42;25.10;86.70
11083;DHT22;5595;50.186;8.468;2023-05-07T15:39:08;25.10;86.80
11083;DHT22;5595;50.186;8.468;2023-05-07T15:41:36;25.30;87.40
11083;DHT22;5595;50.186;8.468;2023-05-07T15:44:03;25.10;87.20
11083;DHT22;5595;50.186;8.468;2023-05-07T15:46:30;25.10;87.00
11083;DHT22;5595;50.186;8.468;2023-05-07T15:49:01;25.00;86.80
11083;DHT22;5595;50.186;8.468;2023-05-07T15:51:34;24.90;86.50